sensor_id;sensor_type;location;lat;lon;timestamp;pressure;altitude;pressure_sealevel;temperature;humidity
47524;BME280;33253;42.144;25.884;2023-05-10T00:00:36;101025.44;;;10.60;100.00
47524;BME280;33253;42.144;25.884;2023-05-10T00:03:01;101013.75;;;10.48;100.00
47524;BME280;33253;42.144;25.884;2023-05-10T00:05:31;101006.97;;;10.50;100.00
47524;BME280;33253;42.144;25.884;2023-05-10T00:07:56;100937.91;;;10.09;100.00
47524;BME280;33253;42.144;25.884;2023-05-10T00:10:22;100941.00;;;10.01;100.00
47524;BME280;33253;42.144;25.884;2023-05-10T00:12:47;100936.97;;;9.88;100.00
47524;BME280;33253;42.144;25.884;2023-05-10T00:15:13;100923.94;;;9.67;100.00
47524;BME280;33253;42.144;25.884;2023-05-10T00:17:38;101017.72;;;10.24;100.00
47524;BME280;33253;42.144;25.884;2023-05-10T00:20:04;100973.75;;;10.02;100.00
47524;BME280;33253;42.144;25.884;2023-05-10T00:22:30;101002.94;;;10.19;100.00
47524;BME280;33253;42.144;25.884;2023-05-10T00:24:57;100990.66;;;10.15;100.00
47524;BME280;33253;42.144;25.884;2023-05-10T00:27:22;101010.28;;;10.30;100.00
47524;BME280;33253;42.144;25.884;2023-05-10T00:29:48;101003.34;;;10.29;100.00
47524;BME280;33253;42.144;25.884;2023-05-10T00:32:14;100993.06;;;10.30;100.00
47524;BME280;33253;42.144;25.884;2023-05-10T00:34:39;100998.13;;;10.27;100.00
47524;BME280;33253;42.144;25.884;2023-05-10T00:37:05;100996.50;;;10.29;100.00
47524;BME280;33253;42.144;25.884;2023-05-10T00:39:30;101003.41;;;10.30;100.00
47524;BME280;33253;42.144;25.884;2023-05-10T00:41:56;100958.56;;;10.09;100.00
47524;BME280;33253;42.144;25.884;2023-05-10T00:44:21;100986.53;;;10.19;100.00
47524;BME280;33253;42.144;25.884;2023-05-10T00:46:47;101001.78;;;10.32;100.00
47524;BME280;33253;42.144;25.884;2023-05-10T00:49:13;100989.34;;;10.24;100.00
47524;BME280;33253;42.144;25.884;2023-05-10T00:51:39;100996.78;;;10.35;100.00
47524;BME280;33253;42.144;25.884;2023-05-10T00:54:05;100985.34;;;10.30;100.00
47524;BME280;33253;42.144;25.884;2023-05-10T00:56:30;100992.66;;;10.39;100.00
47524;BME280;33253;42.144;25.884;2023-05-10T00:58:56;100983.06;;;10.36;100.00
47524;BME280;33253;42.144;25.884;2023-05-10T01:01:22;100967.22;;;10.29;100.00
47524;BME280;33253;42.144;25.884;2023-05-10T01:03:48;100967.97;;;10.26;100.00
47524;BME280;33253;42.144;25.884;2023-05-10T01:06:13;100992.53;;;10.36;100.00
47524;BME280;33253;42.144;25.884;2023-05-10T01:08:39;100955.22;;;10.11;100.00
47524;BME280;33253;42.144;25.884;2023-05-10T01:11:06;100969.22;;;10.16;100.00
47524;BME280;33253;42.144;25.884;2023-05-10T01:13:38;100991.78;;;10.20;100.00
47524;BME280;33253;42.144;25.884;2023-05-10T01:16:04;100992.09;;;10.09;100.00
47524;BME280;33253;42.144;25.884;2023-05-10T01:18:33;100957.63;;;9.88;100.00
47524;BME280;33253;42.144;25.884;2023-05-10T01:21:40;100981.41;;;10.01;100.00
47524;BME280;33253;42.144;25.884;2023-05-10T01:32:53;100985.09;;;9.88;100.00
47524;BME280;33253;42.144;25.884;2023-05-10T01:42:03;100984.59;;;9.77;100.00
47524;BME280;33253;42.144;25.884;2023-05-10T01:47:10;100911.91;;;9.14;100.00
47524;BME280;33253;42.144;25.884;2023-05-10T01:49:41;100962.09;;;9.57;100.00
47524;BME280;33253;42.144;25.884;2023-05-10T01:52:10;100973.00;;;9.69;100.00
47524;BME280;33253;42.144;25.884;2023-05-10T01:54:38;100978.81;;;9.83;100.00
47524;BME280;33253;42.144;25.884;2023-05-10T01:57:08;100954.22;;;9.71;100.00
47524;BME280;33253;42.144;25.884;2023-05-10T01:59:36;100975.59;;;9.87;100.00
47524;BME280;33253;42.144;25.884;2023-05-10T02:02:07;100978.38;;;9.92;100.00
47524;BME280;33253;42.144;25.884;2023-05-10T02:04:37;100909.31;;;9.48;100.00
47524;BME280;33253;42.144;25.884;2023-05-10T02:07:04;100970.44;;;9.69;100.00
47524;BME280;33253;42.144;25.884;2023-05-10T02:09:32;100975.03;;;9.58;100.00
47524;BME280;33253;42.144;25.884;2023-05-10T02:12:00;100978.28;;;9.36;100.00
47524;BME280;33253;42.144;25.884;2023-05-10T02:14:29;100976.88;;;9.43;100.00
47524;BME280;33253;42.144;25.884;2023-05-10T02:16:56;100975.47;;;9.49;100.00
47524;BME280;33253;42.144;25.884;2023-05-10T02:19:23;100970.19;;;9.46;100.00
47524;BME280;33253;42.144;25.884;2023-05-10T02:21:51;100986.69;;;9.50;100.00
47524;BME280;33253;42.144;25.884;2023-05-10T02:24:17;100981.59;;;9.51;100.00
47524;BME280;33253;42.144;25.884;2023-05-10T02:26:45;100981.03;;;9.57;100.00
47524;BME280;33253;42.144;25.884;2023-05-10T02:29:13;100980.75;;;9.69;100.00
47524;BME280;33253;42.144;25.884;2023-05-10T02:31:39;100943.44;;;9.44;100.00
47524;BME280;33253;42.144;25.884;2023-05-10T02:34:09;100980.81;;;9.70;100.00
47524;BME280;33253;42.144;25.884;2023-05-10T02:36:37;100966.22;;;9.53;100.00
47524;BME280;33253;42.144;25.884;2023-05-10T02:39:03;100952.59;;;9.37;100.00
47524;BME280;33253;42.144;25.884;2023-05-10T02:41:32;100970.69;;;9.39;100.00
47524;BME280;33253;42.144;25.884;2023-05-10T02:43:59;100948.78;;;9.31;100.00
47524;BME280;33253;42.144;25.884;2023-05-10T02:46:26;100977.25;;;9.50;100.00
47524;BME280;33253;42.144;25.884;2023-05-10T02:48:52;100981.53;;;9.50;100.00
47524;BME280;33253;42.144;25.884;2023-05-10T02:51:19;100979.91;;;9.52;100.00
47524;BME280;33253;42.144;25.884;2023-05-10T02:53:46;100985.00;;;9.50;100.00
47524;BME280;33253;42.144;25.884;2023-05-10T02:56:20;100982.22;;;9.64;100.00
47524;BME280;33253;42.144;25.884;2023-05-10T02:58:48;100960.03;;;9.67;100.00
47524;BME280;33253;42.144;25.884;2023-05-10T03:01:14;100968.28;;;9.60;100.00
47524;BME280;33253;42.144;25.884;2023-05-10T03:03:40;100992.09;;;9.73;100.00
47524;BME280;33253;42.144;25.884;2023-05-10T03:06:06;100954.72;;;9.46;100.00
47524;BME280;33253;42.144;25.884;2023-05-10T03:08:31;101001.13;;;9.64;100.00
47524;BME280;33253;42.144;25.884;2023-05-10T03:11:22;100981.97;;;9.59;100.00
47524;BME280;33253;42.144;25.884;2023-05-10T03:14:09;100990.38;;;9.73;100.00
47524;BME280;33253;42.144;25.884;2023-05-10T03:16:47;100976.75;;;9.58;100.00
47524;BME280;33253;42.144;25.884;2023-05-10T03:19:18;100992.09;;;9.73;100.00
47524;BME280;33253;42.144;25.884;2023-05-10T03:21:50;100917.81;;;9.29;100.00
47524;BME280;33253;42.144;25.884;2023-05-10T03:24:20;100996.44;;;9.74;100.00
47524;BME280;33253;42.144;25.884;2023-05-10T03:26:47;100996.44;;;9.74;100.00
47524;BME280;33253;42.144;25.884;2023-05-10T03:29:14;100987.66;;;9.70;100.00
47524;BME280;33253;42.144;25.884;2023-05-10T03:31:41;100976.63;;;9.54;100.00
47524;BME280;33253;42.144;25.884;2023-05-10T03:34:06;100904.13;;;9.12;100.00
47524;BME280;33253;42.144;25.884;2023-05-10T03:36:32;100994.28;;;9.65;100.00
47524;BME280;33253;42.144;25.884;2023-05-10T03:38:57;100974.03;;;9.54;100.00
47524;BME280;33253;42.144;25.884;2023-05-10T03:41:23;101014.31;;;9.70;100.00
47524;BME280;33253;42.144;25.884;2023-05-10T03:43:48;100996.28;;;9.52;100.00
47524;BME280;33253;42.144;25.884;2023-05-10T03:46:14;101012.91;;;9.59;100.00
47524;BME280;33253;42.144;25.884;2023-05-10T03:48:39;100941.13;;;9.14;100.00
47524;BME280;33253;42.144;25.884;2023-05-10T03:51:05;101014.63;;;9.59;100.00
47524;BME280;33253;42.144;25.884;2023-05-10T03:53:30;101010.19;;;9.56;100.00
47524;BME280;33253;42.144;25.884;2023-05-10T03:55:56;101000.22;;;9.46;100.00
47524;BME280;33253;42.144;25.884;2023-05-10T03:58:21;101002.22;;;9.51;100.00
47524;BME280;33253;42.144;25.884;2023-05-10T04:00:47;100996.69;;;9.44;100.00
47524;BME280;33253;42.144;25.884;2023-05-10T04:03:12;101001.19;;;9.48;100.00
47524;BME280;33253;42.144;25.884;2023-05-10T04:05:38;101004.00;;;9.52;100.00
47524;BME280;33253;42.144;25.884;2023-05-10T04:08:04;100990.00;;;9.47;100.00
47524;BME280;33253;42.144;25.884;2023-05-10T04:10:30;101015.72;;;9.64;100.00
47524;BME280;33253;42.144;25.884;2023-05-10T04:12:56;101013.28;;;9.67;100.00
47524;BME280;33253;42.144;25.884;2023-05-10T04:15:21;100924.19;;;9.19;100.00
47524;BME280;33253;42.144;25.884;2023-05-10T04:17:47;101014.84;;;9.81;100.00
47524;BME280;33253;42.144;25.884;2023-05-10T04:20:12;101010.97;;;9.90;100.00
47524;BME280;33253;42.144;25.884;2023-05-10T04:22:39;101021.13;;;10.04;100.00
47524;BME280;33253;42.144;25.884;2023-05-10T04:25:05;101031.22;;;10.18;100.00
47524;BME280;33253;42.144;25.884;2023-05-10T04:27:31;100950.97;;;9.76;100.00
47524;BME280;33253;42.144;25.884;2023-05-10T04:29:57;100922.97;;;9.65;100.00
47524;BME280;33253;42.144;25.884;2023-05-10T04:32:22;100947.81;;;9.81;100.00
47524;BME280;33253;42.144;25.884;2023-05-10T04:34:48;101014.84;;;10.17;100.00
47524;BME280;33253;42.144;25.884;2023-05-10T04:37:13;101001.91;;;10.16;100.00
47524;BME280;33253;42.144;25.884;2023-05-10T04:39:39;101008.81;;;10.17;100.00
47524;BME280;33253;42.144;25.884;2023-05-10T04:42:04;101031.03;;;10.33;100.00
47524;BME280;33253;42.144;25.884;2023-05-10T04:44:33;101032.28;;;10.40;100.00
47524;BME280;33253;42.144;25.884;2023-05-10T04:46:59;101032.81;;;10.34;100.00
47524;BME280;33253;42.144;25.884;2023-05-10T04:49:25;101037.94;;;10.50;100.00
47524;BME280;33253;42.144;25.884;2023-05-10T04:51:50;101045.97;;;10.57;100.00
47524;BME280;33253;42.144;25.884;2023-05-10T04:54:16;101040.66;;;10.54;100.00
47524;BME280;33253;42.144;25.884;2023-05-10T04:56:41;101031.13;;;10.52;100.00
47524;BME280;33253;42.144;25.884;2023-05-10T04:59:07;100998.25;;;10.30;100.00
47524;BME280;33253;42.144;25.884;2023-05-10T05:01:32;101018.16;;;10.33;100.00
47524;BME280;33253;42.144;25.884;2023-05-10T05:03:58;101041.03;;;10.43;100.00
47524;BME280;33253;42.144;25.884;2023-05-10T05:06:24;101038.81;;;10.51;100.00
47524;BME280;33253;42.144;25.884;2023-05-10T05:08:50;100954.66;;;10.17;100.00
47524;BME280;33253;42.144;25.884;2023-05-10T05:11:16;101036.88;;;10.65;100.00
47524;BME280;33253;42.144;25.884;2023-05-10T05:13:42;101020.53;;;10.46;100.00
47524;BME280;33253;42.144;25.884;2023-05-10T05:16:07;101048.81;;;10.63;100.00
47524;BME280;33253;42.144;25.884;2023-05-10T05:18:33;101012.66;;;10.43;100.00
47524;BME280;33253;42.144;25.884;2023-05-10T05:20:58;101001.13;;;10.55;100.00
47524;BME280;33253;42.144;25.884;2023-05-10T05:23:24;101038.75;;;10.69;100.00
47524;BME280;33253;42.144;25.884;2023-05-10T05:25:51;100986.31;;;10.50;100.00
47524;BME280;33253;42.144;25.884;2023-05-10T05:28:17;101045.66;;;10.88;100.00
47524;BME280;33253;42.144;25.884;2023-05-10T05:30:43;100967.00;;;10.42;100.00
47524;BME280;33253;42.144;25.884;2023-05-10T05:33:08;101047.06;;;10.81;100.00
47524;BME280;33253;42.144;25.884;2023-05-10T05:35:34;101047.00;;;10.80;100.00
47524;BME280;33253;42.144;25.884;2023-05-10T05:37:59;101021.88;;;10.76;100.00
47524;BME280;33253;42.144;25.884;2023-05-10T05:40:24;101047.09;;;11.01;99.04
47524;BME280;33253;42.144;25.884;2023-05-10T05:42:50;101038.38;;;10.99;100.00
47524;BME280;33253;42.144;25.884;2023-05-10T05:45:15;101039.59;;;11.07;100.00
47524;BME280;33253;42.144;25.884;2023-05-10T05:47:41;101037.97;;;11.09;99.82
47524;BME280;33253;42.144;25.884;2023-05-10T05:50:07;101047.50;;;11.10;100.00
47524;BME280;33253;42.144;25.884;2023-05-10T05:52:32;101039.19;;;11.17;98.47
47524;BME280;33253;42.144;25.884;2023-05-10T05:54:57;101038.63;;;11.25;97.80
47524;BME280;33253;42.144;25.884;2023-05-10T05:57:23;101035.34;;;11.29;99.39
47524;BME280;33253;42.144;25.884;2023-05-10T05:59:48;100981.69;;;11.02;98.33
47524;BME280;33253;42.144;25.884;2023-05-10T06:02:14;101035.66;;;11.15;97.59
47524;BME280;33253;42.144;25.884;2023-05-10T06:04:39;101047.97;;;11.21;96.66
47524;BME280;33253;42.144;25.884;2023-05-10T06:07:05;101056.06;;;11.09;97.31
47524;BME280;33253;42.144;25.884;2023-05-10T06:09:31;101055.03;;;11.06;97.97
47524;BME280;33253;42.144;25.884;2023-05-10T06:11:56;100978.97;;;10.60;97.79
47524;BME280;33253;42.144;25.884;2023-05-10T06:14:22;101049.28;;;10.92;98.92
47524;BME280;33253;42.144;25.884;2023-05-10T06:16:47;101036.47;;;10.75;99.60
47524;BME280;33253;42.144;25.884;2023-05-10T06:19:13;100971.25;;;10.42;98.61
47524;BME280;33253;42.144;25.884;2023-05-10T06:21:38;101062.06;;;11.08;99.07
47524;BME280;33253;42.144;25.884;2023-05-10T06:24:05;101019.84;;;10.88;98.88
47524;BME280;33253;42.144;25.884;2023-05-10T06:26:31;100999.56;;;10.78;98.38
47524;BME280;33253;42.144;25.884;2023-05-10T06:28:57;101040.91;;;10.97;98.36
47524;BME280;33253;42.144;25.884;2023-05-10T06:31:22;101065.44;;;11.07;98.79
47524;BME280;33253;42.144;25.884;2023-05-10T06:33:48;101061.78;;;11.02;99.26
47524;BME280;33253;42.144;25.884;2023-05-10T06:36:13;101040.91;;;10.97;99.25
47524;BME280;33253;42.144;25.884;2023-05-10T06:38:39;100993.66;;;10.80;98.81
47524;BME280;33253;42.144;25.884;2023-05-10T06:41:04;101053.59;;;11.32;99.11
47524;BME280;33253;42.144;25.884;2023-05-10T06:43:30;100979.78;;;10.98;99.16
47524;BME280;33253;42.144;25.884;2023-05-10T06:45:56;101062.09;;;11.49;99.02
47524;BME280;33253;42.144;25.884;2023-05-10T06:48:22;101064.91;;;11.34;99.62
47524;BME280;33253;42.144;25.884;2023-05-10T06:50:48;101015.38;;;11.05;99.45
47524;BME280;33253;42.144;25.884;2023-05-10T06:53:13;100929.84;;;10.58;99.11
47524;BME280;33253;42.144;25.884;2023-05-10T06:55:39;101055.41;;;11.54;100.00
47524;BME280;33253;42.144;25.884;2023-05-10T06:58:04;101037.88;;;11.47;99.49
47524;BME280;33253;42.144;25.884;2023-05-10T07:00:31;101044.88;;;11.49;98.67
47524;BME280;33253;42.144;25.884;2023-05-10T07:02:56;101046.94;;;11.58;99.75
47524;BME280;33253;42.144;25.884;2023-05-10T07:05:22;101049.25;;;11.72;98.62
47524;BME280;33253;42.144;25.884;2023-05-10T07:07:47;101054.53;;;11.75;97.62
47524;BME280;33253;42.144;25.884;2023-05-10T07:10:13;101049.03;;;11.67;97.97
47524;BME280;33253;42.144;25.884;2023-05-10T07:12:39;100965.19;;;11.20;97.36
47524;BME280;33253;42.144;25.884;2023-05-10T07:15:05;101060.16;;;11.86;97.43
47524;BME280;33253;42.144;25.884;2023-05-10T07:17:31;101053.59;;;11.94;97.28
47524;BME280;33253;42.144;25.884;2023-05-10T07:19:58;101033.06;;;11.77;96.33
47524;BME280;33253;42.144;25.884;2023-05-10T07:22:23;101052.94;;;11.98;96.93
47524;BME280;33253;42.144;25.884;2023-05-10T07:24:49;101049.63;;;12.02;96.46
47524;BME280;33253;42.144;25.884;2023-05-10T07:27:14;101015.06;;;11.79;96.16
47524;BME280;33253;42.144;25.884;2023-05-10T07:29:40;101038.69;;;11.88;93.58
47524;BME280;33253;42.144;25.884;2023-05-10T07:32:05;101053.94;;;12.02;93.16
47524;BME280;33253;42.144;25.884;2023-05-10T07:34:31;101050.13;;;12.14;92.32
47524;BME280;33253;42.144;25.884;2023-05-10T07:37:00;101044.31;;;12.20;92.98
47524;BME280;33253;42.144;25.884;2023-05-10T07:39:26;101034.41;;;12.10;93.86
47524;BME280;33253;42.144;25.884;2023-05-10T07:41:52;101059.34;;;12.29;93.07
47524;BME280;33253;42.144;25.884;2023-05-10T07:44:18;101045.16;;;12.19;91.68
47524;BME280;33253;42.144;25.884;2023-05-10T07:46:44;101036.50;;;12.19;91.93
47524;BME280;33253;42.144;25.884;2023-05-10T07:49:10;101065.75;;;12.39;94.85
47524;BME280;33253;42.144;25.884;2023-05-10T07:51:36;101060.41;;;12.34;93.39
47524;BME280;33253;42.144;25.884;2023-05-10T07:54:01;101058.75;;;12.36;93.76
47524;BME280;33253;42.144;25.884;2023-05-10T07:56:31;101059.56;;;12.35;92.67
47524;BME280;33253;42.144;25.884;2023-05-10T07:58:57;101066.38;;;12.33;91.67
47524;BME280;33253;42.144;25.884;2023-05-10T08:01:23;101059.34;;;12.29;92.48
47524;BME280;33253;42.144;25.884;2023-05-10T08:03:49;101071.94;;;12.42;91.07
47524;BME280;33253;42.144;25.884;2023-05-10T08:06:17;101070.22;;;12.43;91.18
47524;BME280;33253;42.144;25.884;2023-05-10T08:08:42;101010.47;;;12.16;89.93
47524;BME280;33253;42.144;25.884;2023-05-10T08:11:08;101059.28;;;12.50;88.69
47524;BME280;33253;42.144;25.884;2023-05-10T08:13:35;101045.38;;;12.48;90.05
47524;BME280;33253;42.144;25.884;2023-05-10T08:16:00;101024.72;;;12.27;90.24
47524;BME280;33253;42.144;25.884;2023-05-10T08:18:26;101077.00;;;12.62;90.14
47524;BME280;33253;42.144;25.884;2023-05-10T08:20:51;101078.19;;;12.70;89.85
47524;BME280;33253;42.144;25.884;2023-05-10T08:23:16;101072.19;;;12.71;88.71
47524;BME280;33253;42.144;25.884;2023-05-10T08:25:42;101025.09;;;12.36;86.81
47524;BME280;33253;42.144;25.884;2023-05-10T08:28:07;101091.19;;;12.72;87.31
47524;BME280;33253;42.144;25.884;2023-05-10T08:30:33;101001.03;;;12.39;88.84
47524;BME280;33253;42.144;25.884;2023-05-10T08:32:58;101067.91;;;12.73;86.98
47524;BME280;33253;42.144;25.884;2023-05-10T08:35:24;101077.00;;;12.85;85.29
47524;BME280;33253;42.144;25.884;2023-05-10T08:37:50;101069.81;;;12.77;84.38
47524;BME280;33253;42.144;25.884;2023-05-10T08:40:19;101081.66;;;12.93;85.32
47524;BME280;33253;42.144;25.884;2023-05-10T08:42:55;101069.91;;;12.81;82.67
47524;BME280;33253;42.144;25.884;2023-05-10T08:45:24;101053.09;;;12.46;81.66
47524;BME280;33253;42.144;25.884;2023-05-10T08:47:49;101085.66;;;12.62;82.41
47524;BME280;33253;42.144;25.884;2023-05-10T08:50:19;101055.50;;;12.65;85.88
47524;BME280;33253;42.144;25.884;2023-05-10T08:52:45;101091.69;;;12.86;85.67
47524;BME280;33253;42.144;25.884;2023-05-10T08:55:13;101063.59;;;12.72;84.71
47524;BME280;33253;42.144;25.884;2023-05-10T08:57:39;101046.84;;;12.64;86.12
47524;BME280;33253;42.144;25.884;2023-05-10T09:00:05;101002.78;;;12.40;83.72
47524;BME280;33253;42.144;25.884;2023-05-10T09:02:31;101065.75;;;12.84;85.61
47524;BME280;33253;42.144;25.884;2023-05-10T09:04:56;101069.66;;;12.97;85.80
47524;BME280;33253;42.144;25.884;2023-05-10T09:07:22;101084.50;;;13.01;84.70
47524;BME280;33253;42.144;25.884;2023-05-10T09:09:48;101084.84;;;13.10;84.99
47524;BME280;33253;42.144;25.884;2023-05-10T09:12:14;101088.59;;;13.19;84.11
47524;BME280;33253;42.144;25.884;2023-05-10T09:15:00;101043.97;;;13.03;83.26
47524;BME280;33253;42.144;25.884;2023-05-10T09:17:25;101083.91;;;13.33;81.92
47524;BME280;33253;42.144;25.884;2023-05-10T09:20:03;101063.72;;;13.24;82.92
47524;BME280;33253;42.144;25.884;2023-05-10T09:22:35;101070.16;;;13.35;80.51
47524;BME280;33253;42.144;25.884;2023-05-10T09:25:12;101061.22;;;13.27;79.85
47524;BME280;33253;42.144;25.884;2023-05-10T09:27:39;101073.13;;;13.45;81.67
47524;BME280;33253;42.144;25.884;2023-05-10T09:30:06;101052.06;;;13.37;81.50
47524;BME280;33253;42.144;25.884;2023-05-10T09:32:39;101057.63;;;13.46;82.38
47524;BME280;33253;42.144;25.884;2023-05-10T09:35:12;101060.69;;;13.60;80.08
47524;BME280;33253;42.144;25.884;2023-05-10T09:37:42;101045.63;;;13.50;77.30
47524;BME280;33253;42.144;25.884;2023-05-10T09:40:12;101078.91;;;13.63;79.14
47524;BME280;33253;42.144;25.884;2023-05-10T09:42:38;101042.09;;;13.48;80.62
47524;BME280;33253;42.144;25.884;2023-05-10T09:45:06;101060.97;;;13.69;81.77
47524;BME280;33253;42.144;25.884;2023-05-10T09:47:33;101061.91;;;13.71;81.88
47524;BME280;33253;42.144;25.884;2023-05-10T09:50:19;101057.75;;;13.77;80.72
47524;BME280;33253;42.144;25.884;2023-05-10T09:52:59;101064.88;;;13.56;77.62
47524;BME280;33253;42.144;25.884;2023-05-10T09:55:42;101061.00;;;13.43;80.15
47524;BME280;33253;42.144;25.884;2023-05-10T09:58:10;100966.41;;;12.84;80.17
47524;BME280;33253;42.144;25.884;2023-05-10T10:00:37;101049.66;;;13.41;80.25
47524;BME280;33253;42.144;25.884;2023-05-10T10:03:04;101044.25;;;13.59;82.24
47524;BME280;33253;42.144;25.884;2023-05-10T10:05:35;101050.75;;;13.74;81.48
47524;BME280;33253;42.144;25.884;2023-05-10T10:08:04;101039.50;;;13.73;79.58
47524;BME280;33253;42.144;25.884;2023-05-10T10:10:31;101012.38;;;13.64;79.61
47524;BME280;33253;42.144;25.884;2023-05-10T10:12:57;101047.16;;;13.96;80.36
47524;BME280;33253;42.144;25.884;2023-05-10T10:15:24;101042.72;;;13.92;77.12
47524;BME280;33253;42.144;25.884;2023-05-10T10:17:50;101049.16;;;14.05;77.12
47524;BME280;33253;42.144;25.884;2023-05-10T10:20:17;101043.19;;;14.07;76.19
47524;BME280;33253;42.144;25.884;2023-05-10T10:22:43;101042.50;;;14.13;78.17
47524;BME280;33253;42.144;25.884;2023-05-10T10:25:11;101012.91;;;14.08;75.81
47524;BME280;33253;42.144;25.884;2023-05-10T10:30:28;101001.66;;;14.36;75.99
47524;BME280;33253;42.144;25.884;2023-05-10T10:35:31;101019.69;;;14.61;72.30
47524;BME280;33253;42.144;25.884;2023-05-10T10:37:58;101033.47;;;14.58;72.54
47524;BME280;33253;42.144;25.884;2023-05-10T10:40:27;101028.00;;;14.49;78.01
47524;BME280;33253;42.144;25.884;2023-05-10T10:42:54;101023.81;;;14.54;75.13
47524;BME280;33253;42.144;25.884;2023-05-10T10:45:20;101028.94;;;14.51;75.52
47524;BME280;33253;42.144;25.884;2023-05-10T10:47:46;101029.00;;;14.54;75.52
47524;BME280;33253;42.144;25.884;2023-05-10T10:50:12;101002.66;;;14.42;77.11
47524;BME280;33253;42.144;25.884;2023-05-10T10:52:39;101023.19;;;14.63;76.03
47524;BME280;33253;42.144;25.884;2023-05-10T10:55:16;101026.50;;;14.57;75.21
47524;BME280;33253;42.144;25.884;2023-05-10T10:57:53;101015.63;;;14.69;75.91
47524;BME280;33253;42.144;25.884;2023-05-10T11:05:47;101009.31;;;14.91;74.55
47524;BME280;33253;42.144;25.884;2023-05-10T11:08:14;101007.69;;;15.27;74.64
47524;BME280;33253;42.144;25.884;2023-05-10T11:11:09;100993.50;;;15.49;70.95
47524;BME280;33253;42.144;25.884;2023-05-10T11:16:23;100993.84;;;16.38;69.24
47524;BME280;33253;42.144;25.884;2023-05-10T11:21:19;100971.91;;;16.26;66.28
47524;BME280;33253;42.144;25.884;2023-05-10T11:23:53;100912.56;;;16.13;67.96
47524;BME280;33253;42.144;25.884;2023-05-10T11:26:22;100975.09;;;16.56;71.20
47524;BME280;33253;42.144;25.884;2023-05-10T11:28:52;101000.19;;;16.50;64.16
47524;BME280;33253;42.144;25.884;2023-05-10T11:31:19;100993.59;;;16.25;67.32
47524;BME280;33253;42.144;25.884;2023-05-10T11:33:53;100987.41;;;16.20;69.70
47524;BME280;33253;42.144;25.884;2023-05-10T11:36:29;100983.56;;;16.04;69.55
47524;BME280;33253;42.144;25.884;2023-05-10T11:38:56;100987.03;;;16.05;70.98
47524;BME280;33253;42.144;25.884;2023-05-10T11:41:22;100984.38;;;16.01;70.77
47524;BME280;33253;42.144;25.884;2023-05-10T11:43:53;100975.63;;;15.99;69.19
47524;BME280;33253;42.144;25.884;2023-05-10T11:46:24;100967.50;;;15.84;68.39
47524;BME280;33253;42.144;25.884;2023-05-10T11:48:52;100968.47;;;15.89;71.02
47524;BME280;33253;42.144;25.884;2023-05-10T11:51:23;100981.66;;;15.97;69.19
47524;BME280;33253;42.144;25.884;2023-05-10T14:15:43;100840.41;;;16.55;63.10
47524;BME280;33253;42.144;25.884;2023-05-10T14:18:08;100804.88;;;16.12;63.20
47524;BME280;33253;42.144;25.884;2023-05-10T14:20:34;100837.16;;;16.19;62.61
47524;BME280;33253;42.144;25.884;2023-05-10T14:23:00;100811.81;;;16.12;62.44
47524;BME280;33253;42.144;25.884;2023-05-10T14:25:25;100841.69;;;16.29;64.26
47524;BME280;33253;42.144;25.884;2023-05-10T14:27:51;100836.56;;;16.32;62.55
47524;BME280;33253;42.144;25.884;2023-05-10T14:30:19;100837.75;;;16.06;64.85
47524;BME280;33253;42.144;25.884;2023-05-10T14:32:45;100841.69;;;15.85;64.16
47524;BME280;33253;42.144;25.884;2023-05-10T14:35:11;100838.00;;;15.77;63.06
47524;BME280;33253;42.144;25.884;2023-05-10T14:37:38;100835.13;;;16.04;62.38
47524;BME280;33253;42.144;25.884;2023-05-10T14:40:04;100839.56;;;16.10;60.79
47524;BME280;33253;42.144;25.884;2023-05-10T14:42:29;100844.75;;;16.10;63.31
47524;BME280;33253;42.144;25.884;2023-05-10T14:44:55;100829.47;;;16.25;62.82
47524;BME280;33253;42.144;25.884;2023-05-10T14:47:21;100819.97;;;16.29;62.06
47524;BME280;33253;42.144;25.884;2023-05-10T14:49:46;100823.69;;;16.42;63.82
47524;BME280;33253;42.144;25.884;2023-05-10T14:52:12;100764.72;;;15.99;63.53
47524;BME280;33253;42.144;25.884;2023-05-10T14:54:39;100835.03;;;16.44;63.28
47524;BME280;33253;42.144;25.884;2023-05-10T14:57:05;100823.09;;;16.11;64.20
47524;BME280;33253;42.144;25.884;2023-05-10T14:59:31;100818.66;;;16.07;63.22
47524;BME280;33253;42.144;25.884;2023-05-10T15:01:59;100811.31;;;16.30;64.04
47524;BME280;33253;42.144;25.884;2023-05-10T15:04:24;100814.78;;;16.30;62.27
47524;BME280;33253;42.144;25.884;2023-05-10T15:06:50;100834.53;;;16.17;62.68
47524;BME280;33253;42.144;25.884;2023-05-10T15:09:15;100839.53;;;16.08;63.19
47524;BME280;33253;42.144;25.884;2023-05-10T15:11:41;100811.53;;;15.96;61.58
47524;BME280;33253;42.144;25.884;2023-05-10T15:14:07;100765.41;;;15.49;61.17
47524;BME280;33253;42.144;25.884;2023-05-10T15:16:32;100838.56;;;16.03;62.62
47524;BME280;33253;42.144;25.884;2023-05-10T15:18:58;100781.69;;;15.41;61.12
47524;BME280;33253;42.144;25.884;2023-05-10T15:21:23;100840.22;;;15.60;61.59
47524;BME280;33253;42.144;25.884;2023-05-10T15:23:48;100834.19;;;15.62;62.37
47524;BME280;33253;42.144;25.884;2023-05-10T15:26:14;100835.56;;;15.84;60.97
47524;BME280;33253;42.144;25.884;2023-05-10T15:28:39;100832.69;;;16.13;62.70
47524;BME280;33253;42.144;25.884;2023-05-10T15:31:05;100806.56;;;16.09;59.40
47524;BME280;33253;42.144;25.884;2023-05-10T15:33:30;100773.16;;;15.88;60.51